sensor_id;sensor_type;location;lat;lon;timestamp;temperature;humidity
981;DHT22;479;53.514;9.994;2022-09-09T00:02:08;14.40;99.90
981;DHT22;479;53.514;9.994;2022-09-09T00:04:41;14.40;99.90
981;DHT22;479;53.514;9.994;2022-09-09T00:07:16;14.50;99.90
981;DHT22;479;53.514;9.994;2022-09-09T00:09:50;14.60;99.90
981;DHT22;479;53.514;9.994;2022-09-09T00:12:27;14.60;99.90
981;DHT22;479;53.514;9.994;2022-09-09T00:15:01;14.50;99.90
981;DHT22;479;53.514;9.994;2022-09-09T00:17:35;14.70;99.90
981;DHT22;479;53.514;9.994;2022-09-09T00:20:13;14.60;99.90
981;DHT22;479;53.514;9.994;2022-09-09T00:22:46;14.70;99.90
981;DHT22;479;53.514;9.994;2022-09-09T00:25:17;14.60;99.90
981;DHT22;479;53.514;9.994;2022-09-09T00:27:48;14.60;99.90
981;DHT22;479;53.514;9.994;2022-09-09T00:30:18;14.70;99.90
981;DHT22;479;53.514;9.994;2022-09-09T00:32:49;14.60;99.90
981;DHT22;479;53.514;9.994;2022-09-09T00:35:22;14.60;99.90
981;DHT22;479;53.514;9.994;2022-09-09T00:37:54;14.70;99.90
981;DHT22;479;53.514;9.994;2022-09-09T00:40:26;14.70;99.90
981;DHT22;479;53.514;9.994;2022-09-09T00:43:07;14.70;99.90
981;DHT22;479;53.514;9.994;2022-09-09T00:48:38;14.70;99.90
981;DHT22;479;53.514;9.994;2022-09-09T00:51:11;14.70;99.90
981;DHT22;479;53.514;9.994;2022-09-09T00:53:58;14.70;99.90
981;DHT22;479;53.514;9.994;2022-09-09T00:56:36;14.60;99.90
981;DHT22;479;53.514;9.994;2022-09-09T00:59:18;14.70;99.90
981;DHT22;479;53.514;9.994;2022-09-09T01:01:49;14.60;99.90
981;DHT22;479;53.514;9.994;2022-09-09T01:04:22;14.60;99.90
981;DHT22;479;53.514;9.994;2022-09-09T01:06:56;14.60;99.90
981;DHT22;479;53.514;9.994;2022-09-09T01:09:32;14.50;99.90
981;DHT22;479;53.514;9.994;2022-09-09T01:12:09;14.50;99.90
981;DHT22;479;53.514;9.994;2022-09-09T01:14:43;14.50;99.90
981;DHT22;479;53.514;9.994;2022-09-09T01:17:17;14.50;99.90
981;DHT22;479;53.514;9.994;2022-09-09T01:20:02;14.50;99.90
981;DHT22;479;53.514;9.994;2022-09-09T01:22:36;14.40;99.90
981;DHT22;479;53.514;9.994;2022-09-09T01:28:11;14.40;99.90
981;DHT22;479;53.514;9.994;2022-09-09T01:30:41;14.40;99.90
981;DHT22;479;53.514;9.994;2022-09-09T01:33:14;14.40;99.90
981;DHT22;479;53.514;9.994;2022-09-09T01:35:49;14.30;99.90
981;DHT22;479;53.514;9.994;2022-09-09T01:38:18;14.40;99.90
981;DHT22;479;53.514;9.994;2022-09-09T01:40:47;14.40;99.90
981;DHT22;479;53.514;9.994;2022-09-09T01:43:16;14.40;99.90
981;DHT22;479;53.514;9.994;2022-09-09T01:45:44;14.30;99.90
981;DHT22;479;53.514;9.994;2022-09-09T01:48:13;14.30;99.90
981;DHT22;479;53.514;9.994;2022-09-09T01:50:43;14.30;99.90
981;DHT22;479;53.514;9.994;2022-09-09T01:53:11;14.30;99.90
981;DHT22;479;53.514;9.994;2022-09-09T01:55:41;14.30;99.90
981;DHT22;479;53.514;9.994;2022-09-09T01:58:25;14.30;99.90
981;DHT22;479;53.514;9.994;2022-09-09T02:01:03;14.30;99.90
981;DHT22;479;53.514;9.994;2022-09-09T02:03:32;14.30;99.90
981;DHT22;479;53.514;9.994;2022-09-09T02:06:18;14.20;99.90
981;DHT22;479;53.514;9.994;2022-09-09T02:08:50;14.20;99.90
981;DHT22;479;53.514;9.994;2022-09-09T02:11:18;14.20;99.90
981;DHT22;479;53.514;9.994;2022-09-09T02:14:01;14.20;99.90
981;DHT22;479;53.514;9.994;2022-09-09T02:16:33;14.10;99.90
981;DHT22;479;53.514;9.994;2022-09-09T02:19:06;14.10;99.90
981;DHT22;479;53.514;9.994;2022-09-09T02:21:56;14.10;99.90
981;DHT22;479;53.514;9.994;2022-09-09T02:24:26;14.10;99.90
981;DHT22;479;53.514;9.994;2022-09-09T02:27:07;14.10;99.90
981;DHT22;479;53.514;9.994;2022-09-09T02:29:40;14.00;99.90
981;DHT22;479;53.514;9.994;2022-09-09T02:32:11;14.00;99.90
981;DHT22;479;53.514;9.994;2022-09-09T02:34:43;14.00;99.90
981;DHT22;479;53.514;9.994;2022-09-09T02:37:11;14.00;99.90
981;DHT22;479;53.514;9.994;2022-09-09T02:39:43;14.00;99.90
981;DHT22;479;53.514;9.994;2022-09-09T02:42:14;14.00;99.90
981;DHT22;479;53.514;9.994;2022-09-09T02:44:44;14.00;99.90
981;DHT22;479;53.514;9.994;2022-09-09T02:47:23;14.00;99.90
981;DHT22;479;53.514;9.994;2022-09-09T02:49:59;14.00;99.90
981;DHT22;479;53.514;9.994;2022-09-09T02:52:35;13.90;99.90
981;DHT22;479;53.514;9.994;2022-09-09T02:55:12;14.00;99.90
981;DHT22;479;53.514;9.994;2022-09-09T02:57:43;14.00;99.90
981;DHT22;479;53.514;9.994;2022-09-09T03:00:15;13.90;99.90
981;DHT22;479;53.514;9.994;2022-09-09T03:02:44;13.90;99.90
981;DHT22;479;53.514;9.994;2022-09-09T03:05:12;13.80;99.90
981;DHT22;479;53.514;9.994;2022-09-09T03:07:40;13.80;99.90
981;DHT22;479;53.514;9.994;2022-09-09T03:10:08;13.80;99.90
981;DHT22;479;53.514;9.994;2022-09-09T03:12:36;13.80;99.90
981;DHT22;479;53.514;9.994;2022-09-09T03:15:06;13.70;99.90
981;DHT22;479;53.514;9.994;2022-09-09T03:17:34;13.70;99.90
981;DHT22;479;53.514;9.994;2022-09-09T03:20:02;13.80;99.90
981;DHT22;479;53.514;9.994;2022-09-09T03:22:29;13.70;99.90
981;DHT22;479;53.514;9.994;2022-09-09T03:24:58;13.70;99.90
981;DHT22;479;53.514;9.994;2022-09-09T03:27:25;13.70;99.90
981;DHT22;479;53.514;9.994;2022-09-09T03:29:52;13.70;99.90
981;DHT22;479;53.514;9.994;2022-09-09T03:32:23;13.70;99.90
981;DHT22;479;53.514;9.994;2022-09-09T03:34:54;13.70;99.90
981;DHT22;479;53.514;9.994;2022-09-09T03:37:21;13.60;99.90
981;DHT22;479;53.514;9.994;2022-09-09T03:39:49;13.60;99.90
981;DHT22;479;53.514;9.994;2022-09-09T03:42:17;13.60;99.90
981;DHT22;479;53.514;9.994;2022-09-09T03:44:47;13.60;99.90
981;DHT22;479;53.514;9.994;2022-09-09T03:47:17;13.60;99.90
981;DHT22;479;53.514;9.994;2022-09-09T03:49:45;13.60;99.90
981;DHT22;479;53.514;9.994;2022-09-09T03:52:13;13.50;99.90
981;DHT22;479;53.514;9.994;2022-09-09T03:54:41;13.60;99.90
981;DHT22;479;53.514;9.994;2022-09-09T03:57:08;13.50;99.90
981;DHT22;479;53.514;9.994;2022-09-09T03:59:36;13.50;99.90
981;DHT22;479;53.514;9.994;2022-09-09T04:02:03;13.50;99.90
981;DHT22;479;53.514;9.994;2022-09-09T04:04:31;13.50;99.90
981;DHT22;479;53.514;9.994;2022-09-09T04:06:58;13.50;99.90
981;DHT22;479;53.514;9.994;2022-09-09T04:09:26;13.50;99.90
981;DHT22;479;53.514;9.994;2022-09-09T04:11:53;13.50;99.90
981;DHT22;479;53.514;9.994;2022-09-09T04:14:21;13.50;99.90
981;DHT22;479;53.514;9.994;2022-09-09T04:16:48;13.40;99.90
981;DHT22;479;53.514;9.994;2022-09-09T04:19:15;13.40;99.90
981;DHT22;479;53.514;9.994;2022-09-09T04:21:43;13.50;99.90
981;DHT22;479;53.514;9.994;2022-09-09T04:24:10;13.50;99.90
981;DHT22;479;53.514;9.994;2022-09-09T04:26:39;13.50;99.90
981;DHT22;479;53.514;9.994;2022-09-09T04:29:06;13.40;99.90
981;DHT22;479;53.514;9.994;2022-09-09T04:31:34;13.50;99.90
981;DHT22;479;53.514;9.994;2022-09-09T04:34:01;13.50;99.90
981;DHT22;479;53.514;9.994;2022-09-09T04:36:31;13.50;99.90
981;DHT22;479;53.514;9.994;2022-09-09T04:39:02;13.50;99.90
981;DHT22;479;53.514;9.994;2022-09-09T04:41:29;13.60;99.90
981;DHT22;479;53.514;9.994;2022-09-09T04:43:58;13.50;99.90
981;DHT22;479;53.514;9.994;2022-09-09T04:46:26;13.60;99.90
981;DHT22;479;53.514;9.994;2022-09-09T04:48:53;13.50;99.90
981;DHT22;479;53.514;9.994;2022-09-09T04:51:22;13.50;99.90
981;DHT22;479;53.514;9.994;2022-09-09T04:53:51;13.50;99.90
981;DHT22;479;53.514;9.994;2022-09-09T04:56:19;13.50;99.90
981;DHT22;479;53.514;9.994;2022-09-09T04:58:59;13.50;99.90
981;DHT22;479;53.514;9.994;2022-09-09T05:01:43;13.50;99.90
981;DHT22;479;53.514;9.994;2022-09-09T05:04:10;13.50;99.90
981;DHT22;479;53.514;9.994;2022-09-09T05:06:37;13.50;99.90
981;DHT22;479;53.514;9.994;2022-09-09T05:09:05;13.50;99.90
981;DHT22;479;53.514;9.994;2022-09-09T05:11:33;13.50;99.90
981;DHT22;479;53.514;9.994;2022-09-09T05:14:29;13.40;99.90
981;DHT22;479;53.514;9.994;2022-09-09T05:16:56;13.50;99.90
981;DHT22;479;53.514;9.994;2022-09-09T05:19:24;13.40;99.90
981;DHT22;479;53.514;9.994;2022-09-09T05:21:52;13.40;99.90
981;DHT22;479;53.514;9.994;2022-09-09T05:24:25;13.50;99.90
981;DHT22;479;53.514;9.994;2022-09-09T05:26:54;13.40;99.90
981;DHT22;479;53.514;9.994;2022-09-09T05:29:25;13.40;99.90
981;DHT22;479;53.514;9.994;2022-09-09T05:31:54;13.40;99.90
981;DHT22;479;53.514;9.994;2022-09-09T05:34:21;13.40;99.90
981;DHT22;479;53.514;9.994;2022-09-09T05:36:49;13.50;99.90
981;DHT22;479;53.514;9.994;2022-09-09T05:39:16;13.50;99.90
981;DHT22;479;53.514;9.994;2022-09-09T05:41:44;13.60;99.90
981;DHT22;479;53.514;9.994;2022-09-09T05:44:10;13.70;99.90
981;DHT22;479;53.514;9.994;2022-09-09T05:46:39;13.70;99.90
981;DHT22;479;53.514;9.994;2022-09-09T05:49:07;13.80;99.90
981;DHT22;479;53.514;9.994;2022-09-09T05:51:35;13.90;99.90
981;DHT22;479;53.514;9.994;2022-09-09T05:54:07;13.90;99.90
981;DHT22;479;53.514;9.994;2022-09-09T05:56:38;14.00;99.90
981;DHT22;479;53.514;9.994;2022-09-09T05:59:07;14.10;99.90
981;DHT22;479;53.514;9.994;2022-09-09T06:01:36;14.20;99.90
981;DHT22;479;53.514;9.994;2022-09-09T06:04:08;14.20;99.90
981;DHT22;479;53.514;9.994;2022-09-09T06:06:36;14.40;99.90
981;DHT22;479;53.514;9.994;2022-09-09T06:09:11;14.40;99.90
981;DHT22;479;53.514;9.994;2022-09-09T06:11:41;14.50;99.90
981;DHT22;479;53.514;9.994;2022-09-09T06:14:09;14.40;99.90
981;DHT22;479;53.514;9.994;2022-09-09T06:16:37;14.40;99.90
981;DHT22;479;53.514;9.994;2022-09-09T06:19:07;14.40;99.90
981;DHT22;479;53.514;9.994;2022-09-09T06:21:36;14.40;99.90
981;DHT22;479;53.514;9.994;2022-09-09T06:24:05;14.40;99.90
981;DHT22;479;53.514;9.994;2022-09-09T06:26:34;14.50;99.90
981;DHT22;479;53.514;9.994;2022-09-09T06:29:03;14.40;99.90
981;DHT22;479;53.514;9.994;2022-09-09T06:31:32;14.40;99.90
981;DHT22;479;53.514;9.994;2022-09-09T06:34:05;14.40;99.90
981;DHT22;479;53.514;9.994;2022-09-09T06:36:36;14.40;99.90
981;DHT22;479;53.514;9.994;2022-09-09T06:39:03;14.50;99.90
981;DHT22;479;53.514;9.994;2022-09-09T06:41:32;14.50;99.90
981;DHT22;479;53.514;9.994;2022-09-09T06:44:01;14.50;99.90
981;DHT22;479;53.514;9.994;2022-09-09T06:46:34;14.50;99.90
981;DHT22;479;53.514;9.994;2022-09-09T06:49:02;14.60;99.90
981;DHT22;479;53.514;9.994;2022-09-09T06:51:30;14.60;99.90
981;DHT22;479;53.514;9.994;2022-09-09T06:53:59;14.70;99.90
981;DHT22;479;53.514;9.994;2022-09-09T06:56:30;14.90;99.90
981;DHT22;479;53.514;9.994;2022-09-09T06:59:03;15.00;99.90
981;DHT22;479;53.514;9.994;2022-09-09T07:01:33;15.10;99.90
981;DHT22;479;53.514;9.994;2022-09-09T07:04:03;15.10;99.90
981;DHT22;479;53.514;9.994;2022-09-09T07:06:35;15.20;99.90
981;DHT22;479;53.514;9.994;2022-09-09T07:09:06;15.10;99.90
981;DHT22;479;53.514;9.994;2022-09-09T07:11:37;15.10;99.90
981;DHT22;479;53.514;9.994;2022-09-09T07:14:04;15.10;99.90
981;DHT22;479;53.514;9.994;2022-09-09T07:16:31;15.20;99.90
981;DHT22;479;53.514;9.994;2022-09-09T07:19:00;15.20;99.90
981;DHT22;479;53.514;9.994;2022-09-09T07:21:29;15.30;99.90
981;DHT22;479;53.514;9.994;2022-09-09T07:23:57;15.30;99.90
981;DHT22;479;53.514;9.994;2022-09-09T07:26:27;15.30;99.90
981;DHT22;479;53.514;9.994;2022-09-09T07:28:55;15.40;99.90
981;DHT22;479;53.514;9.994;2022-09-09T07:31:24;15.40;99.90
981;DHT22;479;53.514;9.994;2022-09-09T07:33:52;15.60;99.90
981;DHT22;479;53.514;9.994;2022-09-09T07:36:21;15.60;99.90
981;DHT22;479;53.514;9.994;2022-09-09T07:38:50;15.90;99.90
981;DHT22;479;53.514;9.994;2022-09-09T07:41:20;16.00;99.90
981;DHT22;479;53.514;9.994;2022-09-09T07:43:50;16.00;99.90
981;DHT22;479;53.514;9.994;2022-09-09T07:46:21;16.10;99.90
981;DHT22;479;53.514;9.994;2022-09-09T07:48:51;16.00;99.90
981;DHT22;479;53.514;9.994;2022-09-09T07:51:22;16.00;99.90
981;DHT22;479;53.514;9.994;2022-09-09T07:53:52;16.10;99.90
981;DHT22;479;53.514;9.994;2022-09-09T07:56:20;16.30;99.90
981;DHT22;479;53.514;9.994;2022-09-09T07:58:50;16.40;99.90
981;DHT22;479;53.514;9.994;2022-09-09T08:01:19;16.50;99.90
981;DHT22;479;53.514;9.994;2022-09-09T08:03:51;16.70;99.90
981;DHT22;479;53.514;9.994;2022-09-09T08:06:19;16.80;99.90
981;DHT22;479;53.514;9.994;2022-09-09T08:08:50;17.10;99.90
981;DHT22;479;53.514;9.994;2022-09-09T08:11:17;17.30;99.90
981;DHT22;479;53.514;9.994;2022-09-09T08:13:44;17.70;99.90
981;DHT22;479;53.514;9.994;2022-09-09T08:16:16;18.30;99.90
981;DHT22;479;53.514;9.994;2022-09-09T08:18:43;18.90;99.90
981;DHT22;479;53.514;9.994;2022-09-09T08:21:14;19.70;99.90
981;DHT22;479;53.514;9.994;2022-09-09T08:23:44;19.80;99.90
981;DHT22;479;53.514;9.994;2022-09-09T08:26:16;19.30;99.90
981;DHT22;479;53.514;9.994;2022-09-09T08:28:47;19.40;99.90
981;DHT22;479;53.514;9.994;2022-09-09T08:31:17;19.40;99.90
981;DHT22;479;53.514;9.994;2022-09-09T08:33:45;19.20;99.90
981;DHT22;479;53.514;9.994;2022-09-09T08:36:13;18.80;99.90
981;DHT22;479;53.514;9.994;2022-09-09T08:38:41;18.50;99.90
981;DHT22;479;53.514;9.994;2022-09-09T08:41:22;18.50;99.90
981;DHT22;479;53.514;9.994;2022-09-09T08:44:02;18.50;99.90
981;DHT22;479;53.514;9.994;2022-09-09T08:46:39;18.50;99.90
981;DHT22;479;53.514;9.994;2022-09-09T08:49:16;18.40;99.90
981;DHT22;479;53.514;9.994;2022-09-09T08:51:48;18.60;99.90
981;DHT22;479;53.514;9.994;2022-09-09T08:54:18;18.80;99.90
981;DHT22;479;53.514;9.994;2022-09-09T08:56:46;19.20;99.90
981;DHT22;479;53.514;9.994;2022-09-09T08:59:17;19.70;99.90
981;DHT22;479;53.514;9.994;2022-09-09T09:01:53;20.30;99.90
981;DHT22;479;53.514;9.994;2022-09-09T09:04:48;20.40;99.90
981;DHT22;479;53.514;9.994;2022-09-09T09:07:25;20.30;99.90
981;DHT22;479;53.514;9.994;2022-09-09T09:10:00;20.00;99.90
981;DHT22;479;53.514;9.994;2022-09-09T09:12:39;19.80;99.90
981;DHT22;479;53.514;9.994;2022-09-09T09:15:14;19.80;99.90
981;DHT22;479;53.514;9.994;2022-09-09T09:17:44;19.50;99.90
981;DHT22;479;53.514;9.994;2022-09-09T09:20:12;19.20;99.90
981;DHT22;479;53.514;9.994;2022-09-09T09:22:47;19.20;99.90
981;DHT22;479;53.514;9.994;2022-09-09T09:25:18;19.50;99.90
981;DHT22;479;53.514;9.994;2022-09-09T09:27:52;19.70;99.90
981;DHT22;479;53.514;9.994;2022-09-09T09:30:26;20.10;99.90
981;DHT22;479;53.514;9.994;2022-09-09T09:33:02;20.40;99.90
981;DHT22;479;53.514;9.994;2022-09-09T09:35:30;20.30;99.90
981;DHT22;479;53.514;9.994;2022-09-09T09:37:57;20.10;99.90
981;DHT22;479;53.514;9.994;2022-09-09T09:40:27;20.30;99.90
981;DHT22;479;53.514;9.994;2022-09-09T09:42:57;20.30;99.90
981;DHT22;479;53.514;9.994;2022-09-09T09:45:31;20.20;99.90
981;DHT22;479;53.514;9.994;2022-09-09T09:48:05;20.10;99.90
981;DHT22;479;53.514;9.994;2022-09-09T09:50:35;20.00;99.90
981;DHT22;479;53.514;9.994;2022-09-09T09:53:20;20.60;99.90
981;DHT22;479;53.514;9.994;2022-09-09T09:55:56;21.50;99.90
981;DHT22;479;53.514;9.994;2022-09-09T09:58:25;22.50;99.90
981;DHT22;479;53.514;9.994;2022-09-09T10:00:53;23.10;99.90
981;DHT22;479;53.514;9.994;2022-09-09T10:03:28;23.70;99.90
981;DHT22;479;53.514;9.994;2022-09-09T10:05:56;23.70;99.90
981;DHT22;479;53.514;9.994;2022-09-09T10:08:24;24.00;99.90
981;DHT22;479;53.514;9.994;2022-09-09T10:11:02;24.40;99.90
981;DHT22;479;53.514;9.994;2022-09-09T10:13:40;24.20;99.90
981;DHT22;479;53.514;9.994;2022-09-09T10:16:21;23.50;99.90
981;DHT22;479;53.514;9.994;2022-09-09T10:19:12;23.90;99.90
981;DHT22;479;53.514;9.994;2022-09-09T10:21:49;24.10;99.90
981;DHT22;479;53.514;9.994;2022-09-09T10:27:18;23.90;99.90
981;DHT22;479;53.514;9.994;2022-09-09T10:30:00;23.70;99.90
981;DHT22;479;53.514;9.994;2022-09-09T10:32:36;23.60;99.90
981;DHT22;479;53.514;9.994;2022-09-09T10:35:10;22.90;99.90
981;DHT22;479;53.514;9.994;2022-09-09T10:38:01;23.20;99.90
981;DHT22;479;53.514;9.994;2022-09-09T10:40:33;23.40;99.90
981;DHT22;479;53.514;9.994;2022-09-09T10:43:14;23.40;99.90
981;DHT22;479;53.514;9.994;2022-09-09T10:45:53;23.60;99.90
981;DHT22;479;53.514;9.994;2022-09-09T10:48:34;23.70;99.90
981;DHT22;479;53.514;9.994;2022-09-09T10:51:13;23.80;99.90
981;DHT22;479;53.514;9.994;2022-09-09T10:53:49;23.20;99.90
981;DHT22;479;53.514;9.994;2022-09-09T10:56:20;22.50;99.90
981;DHT22;479;53.514;9.994;2022-09-09T10:58:53;22.30;99.90
981;DHT22;479;53.514;9.994;2022-09-09T11:01:24;22.30;99.90
981;DHT22;479;53.514;9.994;2022-09-09T11:03:56;22.20;99.90
981;DHT22;479;53.514;9.994;2022-09-09T11:06:31;22.50;99.90
981;DHT22;479;53.514;9.994;2022-09-09T11:09:00;22.80;99.90
981;DHT22;479;53.514;9.994;2022-09-09T11:11:32;23.10;99.90
981;DHT22;479;53.514;9.994;2022-09-09T11:14:04;23.70;99.90
981;DHT22;479;53.514;9.994;2022-09-09T11:16:40;23.90;99.90
981;DHT22;479;53.514;9.994;2022-09-09T11:19:16;23.90;99.90
981;DHT22;479;53.514;9.994;2022-09-09T11:21:49;23.50;99.90
981;DHT22;479;53.514;9.994;2022-09-09T11:24:21;23.30;99.90
981;DHT22;479;53.514;9.994;2022-09-09T11:26:52;23.30;99.90
981;DHT22;479;53.514;9.994;2022-09-09T11:29:38;22.80;99.90
981;DHT22;479;53.514;9.994;2022-09-09T11:32:22;22.80;99.90
981;DHT22;479;53.514;9.994;2022-09-09T11:34:56;22.40;99.90
981;DHT22;479;53.514;9.994;2022-09-09T11:37:44;22.20;99.90
981;DHT22;479;53.514;9.994;2022-09-09T11:40:22;21.90;99.90
981;DHT22;479;53.514;9.994;2022-09-09T11:43:01;21.70;99.90
981;DHT22;479;53.514;9.994;2022-09-09T11:45:30;21.40;99.90
981;DHT22;479;53.514;9.994;2022-09-09T11:47:59;21.20;99.90
981;DHT22;479;53.514;9.994;2022-09-09T11:50:34;21.00;99.90
981;DHT22;479;53.514;9.994;2022-09-09T11:53:18;21.00;99.90
981;DHT22;479;53.514;9.994;2022-09-09T11:56:03;21.20;99.90
981;DHT22;479;53.514;9.994;2022-09-09T11:58:36;21.20;99.90
981;DHT22;479;53.514;9.994;2022-09-09T12:01:14;21.20;99.90
981;DHT22;479;53.514;9.994;2022-09-09T12:03:43;21.10;99.90
981;DHT22;479;53.514;9.994;2022-09-09T12:06:15;21.10;99.90
981;DHT22;479;53.514;9.994;2022-09-09T12:08:51;21.30;99.90
981;DHT22;479;53.514;9.994;2022-09-09T12:11:25;21.20;99.90
981;DHT22;479;53.514;9.994;2022-09-09T12:13:54;21.30;99.90
981;DHT22;479;53.514;9.994;2022-09-09T12:16:32;21.50;99.90
981;DHT22;479;53.514;9.994;2022-09-09T12:19:05;21.60;99.90
981;DHT22;479;53.514;9.994;2022-09-09T12:21:36;21.60;99.90
981;DHT22;479;53.514;9.994;2022-09-09T12:24:09;21.60;99.90
981;DHT22;479;53.514;9.994;2022-09-09T12:26:40;21.70;99.90
981;DHT22;479;53.514;9.994;2022-09-09T12:29:18;21.70;99.90
981;DHT22;479;53.514;9.994;2022-09-09T12:31:53;21.50;99.90
981;DHT22;479;53.514;9.994;2022-09-09T12:34:32;21.20;99.90
981;DHT22;479;53.514;9.994;2022-09-09T12:37:06;21.00;99.90
981;DHT22;479;53.514;9.994;2022-09-09T12:39:39;21.00;99.90
981;DHT22;479;53.514;9.994;2022-09-09T12:42:16;21.00;99.90
981;DHT22;479;53.514;9.994;2022-09-09T12:44:51;21.00;99.90
981;DHT22;479;53.514;9.994;2022-09-09T12:47:20;21.00;99.90
981;DHT22;479;53.514;9.994;2022-09-09T12:49:49;20.80;99.90
981;DHT22;479;53.514;9.994;2022-09-09T12:52:21;20.60;99.90
981;DHT22;479;53.514;9.994;2022-09-09T12:54:51;20.40;99.90
981;DHT22;479;53.514;9.994;2022-09-09T12:57:20;20.20;99.90
981;DHT22;479;53.514;9.994;2022-09-09T12:59:50;20.00;99.90
981;DHT22;479;53.514;9.994;2022-09-09T13:02:20;19.90;99.90
981;DHT22;479;53.514;9.994;2022-09-09T13:04:47;19.70;99.90
981;DHT22;479;53.514;9.994;2022-09-09T13:07:16;19.70;99.90
981;DHT22;479;53.514;9.994;2022-09-09T13:09:43;19.50;99.90
981;DHT22;479;53.514;9.994;2022-09-09T13:12:15;19.30;99.90
981;DHT22;479;53.514;9.994;2022-09-09T13:14:45;19.30;99.90
981;DHT22;479;53.514;9.994;2022-09-09T13:17:19;19.30;99.90
981;DHT22;479;53.514;9.994;2022-09-09T13:19:48;19.20;99.90
981;DHT22;479;53.514;9.994;2022-09-09T13:22:21;19.00;99.90
981;DHT22;479;53.514;9.994;2022-09-09T13:24:59;18.80;99.90
981;DHT22;479;53.514;9.994;2022-09-09T13:27:31;18.50;99.90
981;DHT22;479;53.514;9.994;2022-09-09T13:29:59;18.20;99.90
981;DHT22;479;53.514;9.994;2022-09-09T13:32:28;18.00;99.90
981;DHT22;479;53.514;9.994;2022-09-09T13:34:57;17.80;99.90
981;DHT22;479;53.514;9.994;2022-09-09T13:37:30;17.60;99.90
981;DHT22;479;53.514;9.994;2022-09-09T13:39:58;17.50;99.90
981;DHT22;479;53.514;9.994;2022-09-09T13:42:27;17.50;99.90
981;DHT22;479;53.514;9.994;2022-09-09T13:44:56;17.40;99.90
981;DHT22;479;53.514;9.994;2022-09-09T13:47:30;17.40;99.90
981;DHT22;479;53.514;9.994;2022-09-09T13:49:58;17.40;99.90
981;DHT22;479;53.514;9.994;2022-09-09T13:52:26;17.30;99.90
981;DHT22;479;53.514;9.994;2022-09-09T13:54:56;17.30;99.90
981;DHT22;479;53.514;9.994;2022-09-09T13:57:24;17.30;99.90
981;DHT22;479;53.514;9.994;2022-09-09T13:59:53;17.30;99.90
981;DHT22;479;53.514;9.994;2022-09-09T14:02:21;17.20;99.90
981;DHT22;479;53.514;9.994;2022-09-09T14:04:49;17.20;99.90
981;DHT22;479;53.514;9.994;2022-09-09T14:07:17;17.20;99.90
981;DHT22;479;53.514;9.994;2022-09-09T14:09:44;17.20;99.90
981;DHT22;479;53.514;9.994;2022-09-09T14:12:16;17.20;99.90
981;DHT22;479;53.514;9.994;2022-09-09T14:14:43;17.20;99.90
981;DHT22;479;53.514;9.994;2022-09-09T14:17:10;17.30;99.90
981;DHT22;479;53.514;9.994;2022-09-09T14:19:38;17.20;99.90
981;DHT22;479;53.514;9.994;2022-09-09T14:22:05;17.20;99.90
981;DHT22;479;53.514;9.994;2022-09-09T14:24:32;17.20;99.90
981;DHT22;479;53.514;9.994;2022-09-09T14:26:59;17.20;99.90
981;DHT22;479;53.514;9.994;2022-09-09T14:29:26;17.10;99.90
981;DHT22;479;53.514;9.994;2022-09-09T14:31:53;17.00;99.90
981;DHT22;479;53.514;9.994;2022-09-09T14:34:20;16.90;99.90
981;DHT22;479;53.514;9.994;2022-09-09T14:36:48;16.70;99.90
981;DHT22;479;53.514;9.994;2022-09-09T14:39:16;16.70;99.90
981;DHT22;479;53.514;9.994;2022-09-09T14:41:43;16.60;99.90
981;DHT22;479;53.514;9.994;2022-09-09T14:44:11;16.60;99.90
981;DHT22;479;53.514;9.994;2022-09-09T14:46:38;16.50;99.90
981;DHT22;479;53.514;9.994;2022-09-09T14:49:04;16.40;99.90
981;DHT22;479;53.514;9.994;2022-09-09T14:51:31;16.30;99.90
981;DHT22;479;53.514;9.994;2022-09-09T14:54:00;16.30;99.90
981;DHT22;479;53.514;9.994;2022-09-09T14:56:29;16.30;99.90
981;DHT22;479;53.514;9.994;2022-09-09T14:58:57;16.30;99.90
981;DHT22;479;53.514;9.994;2022-09-09T15:01:26;16.40;99.90
981;DHT22;479;53.514;9.994;2022-09-09T15:03:56;16.50;99.90
981;DHT22;479;53.514;9.994;2022-09-09T15:06:24;16.50;99.90
981;DHT22;479;53.514;9.994;2022-09-09T15:08:53;16.50;99.90
981;DHT22;479;53.514;9.994;2022-09-09T15:11:21;16.40;99.90
981;DHT22;479;53.514;9.994;2022-09-09T15:13:51;16.40;99.90
981;DHT22;479;53.514;9.994;2022-09-09T15:16:19;16.50;99.90
981;DHT22;479;53.514;9.994;2022-09-09T15:18:46;16.50;99.90
981;DHT22;479;53.514;9.994;2022-09-09T15:21:15;16.50;99.90
981;DHT22;479;53.514;9.994;2022-09-09T15:23:43;16.60;99.90
981;DHT22;479;53.514;9.994;2022-09-09T15:26:10;16.60;99.90
981;DHT22;479;53.514;9.994;2022-09-09T15:28:41;16.60;99.90
981;DHT22;479;53.514;9.994;2022-09-09T15:31:11;16.60;99.90
981;DHT22;479;53.514;9.994;2022-09-09T15:33:40;16.60;99.90
981;DHT22;479;53.514;9.994;2022-09-09T15:36:15;16.70;99.90
981;DHT22;479;53.514;9.994;2022-09-09T15:38:42;16.60;99.90
981;DHT22;479;53.514;9.994;2022-09-09T15:41:09;16.70;99.90
981;DHT22;479;53.514;9.994;2022-09-09T15:43:36;16.70;99.90
981;DHT22;479;53.514;9.994;2022-09-09T15:46:22;16.70;99.90
981;DHT22;479;53.514;9.994;2022-09-09T15:48:51;16.80;99.90
981;DHT22;479;53.514;9.994;2022-09-09T15:51:18;16.80;99.90
981;DHT22;479;53.514;9.994;2022-09-09T15:53:45;16.80;99.90
981;DHT22;479;53.514;9.994;2022-09-09T15:56:13;16.90;99.90
981;DHT22;479;53.514;9.994;2022-09-09T15:58:40;16.90;99.90
981;DHT22;479;53.514;9.994;2022-09-09T16:01:10;16.90;99.90
981;DHT22;479;53.514;9.994;2022-09-09T16:03:40;16.90;99.90
981;DHT22;479;53.514;9.994;2022-09-09T16:06:08;16.90;99.90
981;DHT22;479;53.514;9.994;2022-09-09T16:08:37;17.00;99.90
981;DHT22;479;53.514;9.994;2022-09-09T16:11:05;17.10;99.90
981;DHT22;479;53.514;9.994;2022-09-09T16:13:33;17.10;99.90
981;DHT22;479;53.514;9.994;2022-09-09T16:16:01;17.20;99.90
981;DHT22;479;53.514;9.994;2022-09-09T16:18:34;17.30;99.90
981;DHT22;479;53.514;9.994;2022-09-09T16:21:02;17.40;99.90
981;DHT22;479;53.514;9.994;2022-09-09T16:23:31;17.30;99.90
981;DHT22;479;53.514;9.994;2022-09-09T16:25:58;17.30;99.90
981;DHT22;479;53.514;9.994;2022-09-09T16:28:25;17.30;99.90
981;DHT22;479;53.514;9.994;2022-09-09T16:30:52;17.30;99.90
981;DHT22;479;53.514;9.994;2022-09-09T16:33:19;17.30;99.90
981;DHT22;479;53.514;9.994;2022-09-09T16:35:47;17.20;99.90
981;DHT22;479;53.514;9.994;2022-09-09T16:38:15;17.30;99.90
981;DHT22;479;53.514;9.994;2022-09-09T16:40:42;17.30;99.90
981;DHT22;479;53.514;9.994;2022-09-09T16:43:09;17.30;99.90
981;DHT22;479;53.514;9.994;2022-09-09T16:45:42;17.30;99.90
981;DHT22;479;53.514;9.994;2022-09-09T16:48:08;17.20;99.90
981;DHT22;479;53.514;9.994;2022-09-09T16:50:35;17.30;99.90
981;DHT22;479;53.514;9.994;2022-09-09T16:53:04;17.20;99.90
981;DHT22;479;53.514;9.994;2022-09-09T16:55:32;17.20;99.90
981;DHT22;479;53.514;9.994;2022-09-09T16:57:59;17.10;99.90
981;DHT22;479;53.514;9.994;2022-09-09T17:00:26;17.10;99.90
981;DHT22;479;53.514;9.994;2022-09-09T17:02:53;17.10;99.90
981;DHT22;479;53.514;9.994;2022-09-09T17:05:20;17.10;99.90
981;DHT22;479;53.514;9.994;2022-09-09T17:07:48;17.10;99.90
981;DHT22;479;53.514;9.994;2022-09-09T17:10:17;17.00;99.90